KANB/ANB METAR and TAF weather

Enter ICAO airport designator
Station Type Date Time Source
KANB METAR 2019/12/08 18:53 UTC NOAA

KANB 081853Z AUTO 10009KT 10SM SCT041 BKN055 OVC070 16/06 A3017 RMK AO2 SLP218 T01560061


Station Type Date Time Source
KANB Decoded METAR 2019/12/08 18:53 UTC NOAA

ANNISTON METRO AIRPORT, AL, United States (KANB) 33-35N 085-51W 183M
Dec 08, 2019 - 01:53 PM EST / 2019.12.08 1853 UTC
Wind: from the E (100 degrees) at 10 MPH (9 KT):0
Visibility: 10 mile(s):0
Sky conditions: overcast
Temperature: 60.1 F (15.6 C)
Dew Point: 43.0 F (6.1 C)
Relative Humidity: 53%
Pressure (altimeter): 30.17 in. Hg (1021 hPa)
ob: KANB 081853Z AUTO 10009KT 10SM SCT041 BKN055 OVC070 16/06 A3017 RMK AO2 SLP218 T01560061
cycle: 19

Station Type Date Time Source
KANB TAF 2019/12/08 18:40 UTC NOAA

TAF KANB 081737Z 0818/0918 07008G16KT P6SM BKN050
FM090500 13007KT P6SM VCSH OVC020
FM091300 16008KT P6SM VCSH OVC010
FM091700 19009KT P6SM VCSH OVC020

Example: see airport list